Time;durP1;ratioP1;P1;durP2;ratioP2;P2;SDS_P1;SDS_P2;PMS_P1;PMS_P2;Temp;Humidity;BMP_temperature;BMP_pressure;BME280_temperature;BME280_humidity;BME280_pressure;Samples;Min_cycle;Max_cycle;Signal;HPM_P1;HPM_P2
2023/02/22 00:01:21;;;;;;;8.40;2.20;;;;;;;5.16;100.00;100946.91;5018671;28;20830;-73
2023/02/22 00:03:50;;;;;;;8.37;1.47;;;;;;;5.15;100.00;100945.16;5017040;28;20208;-72
2023/02/22 00:06:23;;;;;;;5.20;1.70;;;;;;;5.15;100.00;100944.31;5023841;28;20216;-72
2023/02/22 00:08:51;;;;;;;4.47;1.87;;;;;;;5.13;100.00;100939.97;5024544;28;20201;-72
2023/02/22 00:11:19;;;;;;;4.87;1.50;;;;;;;5.11;100.00;100939.13;5022278;28;20257;-73
2023/02/22 00:13:46;;;;;;;9.73;1.97;;;;;;;5.11;100.00;100933.94;5022364;28;20218;-73
2023/02/22 00:16:15;;;;;;;5.23;1.83;;;;;;;5.12;100.00;100940.00;5023498;28;20232;-72
2023/02/22 00:18:43;;;;;;;6.10;1.70;;;;;;;5.11;100.00;100928.78;5015718;28;20212;-72
2023/02/22 00:21:10;;;;;;;6.50;2.00;;;;;;;5.11;100.00;100928.78;5012793;28;20312;-72
2023/02/22 00:23:42;;;;;;;6.20;2.07;;;;;;;5.10;100.00;100940.00;5020249;28;20214;-72
2023/02/22 00:26:09;;;;;;;8.53;1.90;;;;;;;5.10;100.00;100936.53;5019170;28;20223;-72
2023/02/22 00:28:36;;;;;;;2.60;1.63;;;;;;;5.10;100.00;100940.00;5024924;28;20345;-72
2023/02/22 00:31:04;;;;;;;11.17;2.13;;;;;;;5.10;100.00;100934.84;5017965;28;20307;-72
2023/02/22 00:33:30;;;;;;;13.70;2.00;;;;;;;5.11;100.00;100933.09;5040936;28;20681;-72
2023/02/22 00:35:57;;;;;;;9.03;1.90;;;;;;;5.11;100.00;100939.13;5021490;28;20285;-72
2023/02/22 00:38:24;;;;;;;5.83;1.70;;;;;;;5.12;100.00;100930.53;5027528;23;20188;-74
2023/02/22 00:40:51;;;;;;;4.77;1.50;;;;;;;5.11;100.00;100935.69;5015947;28;21027;-74
2023/02/22 00:43:18;;;;;;;7.13;1.83;;;;;;;5.10;100.00;100924.50;5018915;28;20858;-74
2023/02/22 00:45:44;;;;;;;5.00;2.23;;;;;;;5.11;100.00;100933.94;5012122;28;20372;-74
2023/02/22 00:48:11;;;;;;;5.37;1.93;;;;;;;5.12;100.00;100927.09;5015302;28;20200;-74
2023/02/22 00:50:37;;;;;;;10.30;2.33;;;;;;;5.09;100.00;100922.75;5017338;28;20926;-75
2023/02/22 00:53:08;;;;;;;5.57;1.80;;;;;;;5.10;100.00;100927.06;5034157;23;20236;-72
2023/02/22 00:55:37;;;;;;;10.33;2.17;;;;;;;5.08;100.00;100933.09;5022713;28;20204;-73
2023/02/22 00:58:06;;;;;;;8.07;2.37;;;;;;;5.09;100.00;100937.41;5014765;28;20215;-72
2023/02/22 01:00:36;;;;;;;8.13;1.93;;;;;;;5.09;100.00;100933.09;5002651;28;20639;-71
2023/02/22 01:03:03;;;;;;;7.37;2.33;;;;;;;5.08;100.00;100931.38;5003555;28;20205;-72
2023/02/22 01:05:32;;;;;;;12.03;2.30;;;;;;;5.08;100.00;100923.63;5002845;28;20595;-72
2023/02/22 01:08:00;;;;;;;16.57;2.47;;;;;;;5.09;100.00;100932.25;5003002;28;20546;-72
2023/02/22 01:10:30;;;;;;;7.27;2.10;;;;;;;5.08;100.00;100933.09;5020006;28;20295;-72
2023/02/22 01:12:59;;;;;;;4.50;2.07;;;;;;;5.07;100.00;100937.41;5003369;28;20205;-73
2023/02/22 01:15:29;;;;;;;9.73;1.80;;;;;;;5.07;100.00;100931.38;5004402;28;20228;-73
2023/02/22 01:17:58;;;;;;;12.77;2.07;;;;;;;5.07;100.00;100928.78;5002846;28;20194;-72
2023/02/22 01:20:26;;;;;;;10.37;2.17;;;;;;;5.06;100.00;100920.16;4998356;28;20802;-72
2023/02/22 01:22:54;;;;;;;7.73;2.00;;;;;;;5.06;100.00;100924.47;5001789;28;20562;-73
2023/02/22 01:25:24;;;;;;;4.20;1.83;;;;;;;5.04;100.00;100924.47;5002878;28;20200;-73
2023/02/22 01:27:52;;;;;;;11.30;2.30;;;;;;;5.03;100.00;100925.34;4998130;28;20208;-72
2023/02/22 01:30:21;;;;;;;6.07;1.90;;;;;;;5.04;100.00;100928.78;5018612;28;20232;-73
2023/02/22 01:32:51;;;;;;;8.60;2.50;;;;;;;5.02;100.00;100923.59;5001848;28;20194;-72
2023/02/22 01:35:21;;;;;;;8.20;2.37;;;;;;;5.03;100.00;100927.03;5005288;28;20202;-72
2023/02/22 01:37:48;;;;;;;7.03;2.37;;;;;;;5.02;100.00;100923.59;5001992;28;20220;-72
2023/02/22 01:40:20;;;;;;;10.93;2.00;;;;;;;5.00;100.00;100920.16;4997713;28;20479;-72
2023/02/22 01:42:51;;;;;;;11.37;2.30;;;;;;;5.01;100.00;100923.59;5000805;28;20207;-72
2023/02/22 01:45:56;;;;;;;9.30;2.13;;;;;;;4.99;100.00;100917.56;5019973;28;20201;-72
2023/02/22 01:48:28;;;;;;;14.47;2.83;;;;;;;5.00;100.00;100914.16;4967603;28;20209;-72
2023/02/22 01:50:59;;;;;;;7.43;1.80;;;;;;;4.98;100.00;100919.31;4997275;28;20733;-72
2023/02/22 01:53:32;;;;;;;4.27;1.77;;;;;;;4.98;100.00;100918.41;5018336;28;20705;-72
2023/02/22 01:56:00;;;;;;;9.50;2.47;;;;;;;4.97;100.00;100917.56;4996127;28;20271;-72
2023/02/22 01:58:30;;;;;;;9.73;2.07;;;;;;;4.97;100.00;100921.88;5003379;28;20224;-73
2023/02/22 02:00:57;;;;;;;7.80;1.67;;;;;;;4.97;100.00;100921.88;5010997;28;20200;-71
2023/02/22 02:03:29;;;;;;;5.13;2.30;;;;;;;4.97;100.00;100916.72;5007989;28;20200;-73
2023/02/22 02:05:59;;;;;;;3.83;2.07;;;;;;;4.95;100.00;100914.13;5008872;28;20258;-73
2023/02/22 02:08:35;;;;;;;4.03;1.60;;;;;;;4.96;100.00;100915.88;5009919;28;20259;-73
2023/02/22 02:11:04;;;;;;;4.20;2.00;;;;;;;4.96;100.00;100912.41;5005335;28;20259;-74
2023/02/22 02:13:30;;;;;;;6.57;1.97;;;;;;;4.97;100.00;100912.41;5012954;28;20231;-71
2023/02/22 02:15:57;;;;;;;4.43;2.03;;;;;;;4.98;100.00;100915.84;5005356;28;20216;-74
2023/02/22 02:18:27;;;;;;;12.97;5.70;;;;;;;4.99;100.00;100915.84;5008104;28;20197;-73
2023/02/22 02:21:23;;;;;;;9.57;4.27;;;;;;;4.98;100.00;100914.13;5026934;28;20569;-73
2023/02/22 02:24:11;;;;;;;8.17;3.67;;;;;;;4.99;100.00;100915.00;5028055;28;20216;-74
2023/02/22 02:26:59;;;;;;;7.60;3.57;;;;;;;4.97;100.00;100904.66;5006670;28;20192;-73
2023/02/22 02:30:01;;;;;;;10.20;2.70;;;;;;;4.97;100.00;100903.78;4998992;28;20231;-72
2023/02/22 02:32:41;;;;;;;6.93;2.73;;;;;;;4.97;100.00;100904.66;5029109;28;20192;-71
2023/02/22 02:35:14;;;;;;;4.73;2.37;;;;;;;4.95;100.00;100903.78;5028362;28;20781;-73
2023/02/22 02:37:51;;;;;;;6.03;2.33;;;;;;;4.95;100.00;100906.38;5029522;28;20197;-72
2023/02/22 02:40:24;;;;;;;7.03;2.33;;;;;;;4.95;100.00;100908.09;5011074;28;20216;-73
2023/02/22 02:42:59;;;;;;;7.17;2.50;;;;;;;4.95;100.00;100902.94;5022724;28;20240;-72
2023/02/22 02:45:30;;;;;;;8.40;2.13;;;;;;;4.94;100.00;100904.63;5002303;28;20572;-72
2023/02/22 02:48:02;;;;;;;9.77;2.70;;;;;;;4.94;100.00;100899.47;4998255;28;20581;-72
2023/02/22 02:50:33;;;;;;;5.70;2.50;;;;;;;4.93;100.00;100903.78;4999969;28;20271;-72
2023/02/22 02:53:05;;;;;;;5.47;1.90;;;;;;;4.93;100.00;100897.75;5000715;28;20232;-72
2023/02/22 02:55:35;;;;;;;8.20;2.00;;;;;;;4.93;100.00;100908.94;5002988;28;20310;-72
2023/02/22 02:58:03;;;;;;;7.80;2.23;;;;;;;4.93;100.00;100906.38;4996572;28;20306;-72
2023/02/22 03:00:38;;;;;;;6.73;2.37;;;;;;;4.91;100.00;100908.09;5000733;28;20227;-72
2023/02/22 03:03:36;;;;;;;7.33;1.90;;;;;;;4.91;100.00;100909.81;4997642;28;20205;-72
2023/02/22 03:06:25;;;;;;;8.67;2.33;;;;;;;4.91;100.00;100905.50;5001223;28;20696;-72
2023/02/22 03:08:59;;;;;;;12.33;2.63;;;;;;;4.89;100.00;100901.19;5011493;28;20590;-72
2023/02/22 03:11:30;;;;;;;6.17;2.17;;;;;;;4.89;100.00;100906.34;4998551;28;20219;-73
2023/02/22 03:14:07;;;;;;;5.47;2.23;;;;;;;4.88;100.00;100904.63;5004358;28;20219;-72
2023/02/22 03:16:44;;;;;;;6.37;2.30;;;;;;;4.87;100.00;100902.91;5002162;28;20784;-73
2023/02/22 03:19:19;;;;;;;8.07;2.73;;;;;;;4.88;100.00;100910.66;5001628;28;20224;-72
2023/02/22 03:21:54;;;;;;;4.80;1.93;;;;;;;4.86;100.00;100902.06;4995646;28;20203;-73
2023/02/22 03:24:27;;;;;;;5.50;2.10;;;;;;;4.86;100.00;100899.47;4995472;28;20201;-72
2023/02/22 03:27:01;;;;;;;6.53;1.90;;;;;;;4.87;100.00;100908.06;4999648;28;20700;-73
2023/02/22 03:29:34;;;;;;;9.20;2.53;;;;;;;4.88;100.00;100908.06;5022076;28;20228;-73
2023/02/22 03:32:05;;;;;;;4.47;1.80;;;;;;;4.87;100.00;100908.97;5001785;28;20558;-73
2023/02/22 03:34:40;;;;;;;9.50;2.43;;;;;;;4.86;100.00;100902.06;5017566;28;20375;-73
2023/02/22 03:37:13;;;;;;;6.97;2.17;;;;;;;4.86;100.00;100912.38;5003988;28;20573;-72
2023/02/22 03:39:44;;;;;;;6.73;2.10;;;;;;;4.86;100.00;100908.94;5018205;28;20212;-73
2023/02/22 03:42:15;;;;;;;3.73;2.20;;;;;;;4.87;100.00;100905.50;5004606;28;20225;-73
2023/02/22 03:44:45;;;;;;;9.00;2.17;;;;;;;4.86;100.00;100909.81;4999510;28;20185;-72
2023/02/22 03:47:18;;;;;;;9.07;2.50;;;;;;;4.85;100.00;100904.63;5005178;28;20688;-72
2023/02/22 03:49:51;;;;;;;9.20;2.97;;;;;;;4.84;100.00;100905.50;5018396;28;20322;-75
2023/02/22 03:52:22;;;;;;;6.57;2.57;;;;;;;4.85;100.00;100907.22;5017818;28;20213;-72
2023/02/22 03:54:52;;;;;;;5.87;2.03;;;;;;;4.84;100.00;100911.53;5000261;28;20217;-72
2023/02/22 03:57:25;;;;;;;9.20;2.40;;;;;;;4.85;100.00;100905.47;5016439;28;20209;-72
2023/02/22 04:00:04;;;;;;;7.10;2.23;;;;;;;4.85;100.00;100904.63;5005080;28;20490;-72
2023/02/22 04:02:39;;;;;;;9.37;2.43;;;;;;;4.85;100.00;100902.03;5007746;28;20199;-72
2023/02/22 04:05:08;;;;;;;6.97;2.23;;;;;;;4.83;100.00;100907.19;5004427;28;20212;-73
2023/02/22 04:07:35;;;;;;;7.33;2.43;;;;;;;4.82;100.00;100904.63;5020457;28;20400;-72
2023/02/22 04:10:02;;;;;;;6.90;2.20;;;;;;;4.82;100.00;100895.16;5004866;28;20743;-72
2023/02/22 04:12:31;;;;;;;6.33;2.30;;;;;;;4.83;100.00;100896.00;5002146;28;20299;-72
2023/02/22 04:15:02;;;;;;;7.53;2.33;;;;;;;4.82;100.00;100897.75;5002231;28;20275;-75
2023/02/22 04:17:29;;;;;;;6.13;2.43;;;;;;;4.81;100.00;100897.75;5001425;28;20320;-73
2023/02/22 04:19:56;;;;;;;13.33;2.23;;;;;;;4.81;100.00;100901.19;5020822;28;20676;-72
2023/02/22 04:22:25;;;;;;;7.43;2.50;;;;;;;4.80;100.00;100896.88;5005385;28;20765;-72
2023/02/22 04:24:52;;;;;;;6.40;2.43;;;;;;;4.80;100.00;100893.41;5017741;28;20258;-73
2023/02/22 04:27:20;;;;;;;9.13;2.50;;;;;;;4.79;100.00;100902.03;5003605;28;20220;-73
2023/02/22 04:29:47;;;;;;;6.73;2.13;;;;;;;4.77;100.00;100894.28;5003795;28;20212;-73
2023/02/22 04:32:15;;;;;;;6.67;2.10;;;;;;;4.77;100.00;100896.00;5002782;28;20193;-72
2023/02/22 04:34:41;;;;;;;11.03;3.13;;;;;;;4.76;100.00;100900.31;5004541;28;20680;-72
2023/02/22 04:37:09;;;;;;;7.10;3.03;;;;;;;4.74;100.00;100905.47;5026446;28;20712;-73
2023/02/22 04:39:36;;;;;;;9.27;4.03;;;;;;;4.73;100.00;100895.13;5020237;28;20270;-73
2023/02/22 04:42:03;;;;;;;9.13;3.73;;;;;;;4.73;100.00;100892.53;5004099;28;20280;-72
2023/02/22 04:44:31;;;;;;;13.37;4.47;;;;;;;4.72;100.00;100899.44;5016699;28;20287;-72
2023/02/22 04:46:58;;;;;;;7.93;3.67;;;;;;;4.73;100.00;100889.97;5004913;28;20287;-72
2023/02/22 04:49:25;;;;;;;7.83;3.50;;;;;;;4.72;100.00;100894.28;5020433;28;20232;-72
2023/02/22 04:51:53;;;;;;;6.40;2.67;;;;;;;4.71;100.00;100884.81;5004014;28;20295;-72
2023/02/22 04:54:24;;;;;;;7.63;2.33;;;;;;;4.71;100.00;100889.97;5000885;28;20724;-72
2023/02/22 04:56:52;;;;;;;11.63;2.67;;;;;;;4.72;100.00;100889.09;5012967;28;20215;-71
2023/02/22 04:59:19;;;;;;;6.77;2.53;;;;;;;4.71;100.00;100887.41;5004270;28;20235;-73
2023/02/22 05:01:52;;;;;;;9.50;2.93;;;;;;;4.72;100.00;100890.84;5002893;28;20208;-73
2023/02/22 05:04:18;;;;;;;6.07;2.83;;;;;;;4.71;100.00;100887.41;5005471;28;20672;-73
2023/02/22 05:06:45;;;;;;;11.00;2.37;;;;;;;4.69;100.00;100886.50;5000093;28;20682;-72
2023/02/22 05:09:12;;;;;;;5.50;2.57;;;;;;;4.69;100.00;100886.50;5002156;28;20220;-72
2023/02/22 05:11:38;;;;;;;8.07;1.93;;;;;;;4.68;100.00;100883.94;5001703;28;20346;-73
2023/02/22 05:14:06;;;;;;;4.87;2.70;;;;;;;4.68;100.00;100874.47;5000448;28;20207;-72
2023/02/22 05:16:33;;;;;;;7.97;2.13;;;;;;;4.66;100.00;100876.19;5017716;28;20631;-72
2023/02/22 05:18:59;;;;;;;6.33;2.20;;;;;;;4.65;100.00;100881.34;4999775;28;20748;-72
2023/02/22 05:21:25;;;;;;;6.27;2.10;;;;;;;4.65;100.00;100889.09;5002284;28;20283;-72
2023/02/22 05:23:52;;;;;;;11.27;2.70;;;;;;;4.64;100.00;100877.88;5002385;28;20613;-73
2023/02/22 05:26:19;;;;;;;6.10;2.03;;;;;;;4.63;100.00;100883.94;5005770;28;20219;-72
2023/02/22 05:28:45;;;;;;;7.77;2.30;;;;;;;4.63;100.00;100880.50;5003262;28;20624;-72
2023/02/22 05:31:13;;;;;;;9.83;2.07;;;;;;;4.62;100.00;100879.59;5003618;28;20207;-72
2023/02/22 05:33:40;;;;;;;7.67;2.23;;;;;;;4.63;100.00;100880.50;5000925;28;20212;-71
2023/02/22 05:36:08;;;;;;;10.30;2.23;;;;;;;4.63;100.00;100889.09;4999827;28;20303;-72
2023/02/22 05:38:41;;;;;;;7.23;2.40;;;;;;;4.62;100.00;100886.50;5016180;28;20893;-72
2023/02/22 05:41:08;;;;;;;10.30;3.00;;;;;;;4.62;100.00;100889.09;4996250;28;20650;-72
2023/02/22 05:43:35;;;;;;;5.80;2.33;;;;;;;4.60;100.00;100889.06;5001025;28;20215;-73
2023/02/22 05:46:01;;;;;;;9.73;2.57;;;;;;;4.61;100.00;100883.06;5001945;28;20228;-73
2023/02/22 05:48:29;;;;;;;6.23;2.53;;;;;;;4.60;100.00;100886.50;5002365;28;20223;-72
2023/02/22 05:50:56;;;;;;;8.63;2.67;;;;;;;4.60;100.00;100888.22;5005069;28;20642;-73
2023/02/22 05:53:23;;;;;;;6.87;2.37;;;;;;;4.59;100.00;100889.94;5003068;28;20283;-74
2023/02/22 05:55:49;;;;;;;6.13;2.33;;;;;;;4.59;100.00;100887.38;5002921;28;20228;-73
2023/02/22 05:58:16;;;;;;;8.70;2.53;;;;;;;4.61;100.00;100890.81;5003622;28;20586;-72
2023/02/22 06:00:43;;;;;;;8.97;3.03;;;;;;;4.61;100.00;100897.69;5000653;28;20297;-73
2023/02/22 06:03:12;;;;;;;6.43;2.43;;;;;;;4.59;100.00;100892.53;4995927;28;20503;-73
2023/02/22 06:05:44;;;;;;;12.50;3.50;;;;;;;4.60;100.00;100898.56;5013687;28;20686;-72
2023/02/22 06:08:11;;;;;;;7.70;2.80;;;;;;;4.61;100.00;100895.97;5000169;28;20208;-72
2023/02/22 06:10:37;;;;;;;21.80;12.43;;;;;;;4.63;100.00;100906.31;4998880;28;20610;-73
2023/02/22 06:13:05;;;;;;;18.67;7.70;;;;;;;4.63;100.00;100903.72;5004174;28;20287;-72
2023/02/22 06:15:32;;;;;;;13.00;6.47;;;;;;;4.63;100.00;100899.41;5003810;28;20569;-72
2023/02/22 06:17:59;;;;;;;17.93;4.33;;;;;;;4.64;100.00;100906.28;4996835;28;20216;-72
2023/02/22 06:20:27;;;;;;;9.73;2.80;;;;;;;4.65;100.00;100897.69;5005301;28;20304;-72
2023/02/22 06:22:57;;;;;;;8.13;3.60;;;;;;;4.65;100.00;100908.03;4998223;28;20668;-72
2023/02/22 06:25:25;;;;;;;16.93;3.90;;;;;;;4.67;100.00;100908.03;5001247;28;20554;-72
2023/02/22 06:27:52;;;;;;;13.00;3.03;;;;;;;4.67;100.00;100901.13;4997320;28;20197;-72
2023/02/22 06:30:21;;;;;;;11.60;3.63;;;;;;;4.68;100.00;100899.44;5003929;28;20216;-72
2023/02/22 06:32:48;;;;;;;11.97;2.83;;;;;;;4.71;100.00;100899.44;5001661;28;20196;-73
2023/02/22 06:35:15;;;;;;;9.03;2.87;;;;;;;4.72;100.00;100908.91;5003757;28;20215;-72
2023/02/22 06:37:41;;;;;;;9.67;3.03;;;;;;;4.73;100.00;100905.44;4995016;28;20658;-72
2023/02/22 06:40:11;;;;;;;7.37;3.27;;;;;;;4.75;100.00;100908.94;5024123;23;20225;-73
2023/02/22 06:42:37;;;;;;;9.37;3.97;;;;;;;4.76;100.00;100910.63;5014351;28;20652;-73
2023/02/22 06:45:04;;;;;;;11.70;3.20;;;;;;;4.77;100.00;100917.53;5010896;28;20200;-73
2023/02/22 06:47:31;;;;;;;7.70;3.03;;;;;;;4.78;100.00;100919.25;5016548;28;20253;-74
2023/02/22 06:49:59;;;;;;;11.23;3.13;;;;;;;4.81;100.00;100918.41;5015772;28;20693;-72
2023/02/22 06:52:26;;;;;;;11.73;3.47;;;;;;;4.84;100.00;100923.59;5023983;28;20203;-74
2023/02/22 06:54:52;;;;;;;12.67;3.73;;;;;;;4.85;100.00;100920.13;5016902;28;20763;-73
2023/02/22 06:57:20;;;;;;;18.23;4.20;;;;;;;4.87;100.00;100924.47;5017356;28;20205;-73
2023/02/22 06:59:48;;;;;;;9.67;2.63;;;;;;;4.89;100.00;100927.91;5015423;28;20247;-73
2023/02/22 07:02:15;;;;;;;10.60;3.77;;;;;;;4.90;100.00;100926.16;5021307;28;20723;-73
2023/02/22 07:04:41;;;;;;;16.70;4.63;;;;;;;4.92;100.00;100927.03;5020375;28;20192;-73
2023/02/22 07:07:08;;;;;;;31.87;12.33;;;;;;;4.95;100.00;100928.78;5012402;28;20200;-72
2023/02/22 07:09:34;;;;;;;55.80;22.80;;;;;;;4.97;100.00;100927.06;5007717;28;20221;-72
2023/02/22 07:12:03;;;;;;;81.67;32.30;;;;;;;5.00;100.00;100933.09;5021255;28;20296;-73
2023/02/22 07:14:31;;;;;;;33.73;13.27;;;;;;;5.01;100.00;100929.63;5013298;28;20622;-73
2023/02/22 07:16:57;;;;;;;33.63;13.97;;;;;;;5.04;100.00;100924.47;5017932;28;20661;-73
2023/02/22 07:19:24;;;;;;;23.37;8.80;;;;;;;5.05;100.00;100928.78;5016580;28;20243;-73
2023/02/22 07:21:57;;;;;;;18.83;8.17;;;;;;;5.07;100.00;100934.81;5018123;28;20185;-73
2023/02/22 07:24:24;;;;;;;20.97;9.87;;;;;;;5.10;100.00;100932.25;5019244;28;20197;-73
2023/02/22 07:26:51;;;;;;;14.23;6.17;;;;;;;5.12;100.00;100938.28;5016393;28;20232;-73
2023/02/22 07:29:17;;;;;;;14.50;5.80;;;;;;;5.17;100.00;100934.81;5023809;28;20220;-74
2023/02/22 07:31:45;;;;;;;14.40;4.40;;;;;;;5.20;100.00;100932.25;5019658;28;20220;-74
2023/02/22 07:34:13;;;;;;;8.43;4.03;;;;;;;5.23;100.00;100932.25;5011686;28;20193;-73
2023/02/22 07:36:40;;;;;;;11.83;4.43;;;;;;;5.23;100.00;100934.84;5025462;28;20288;-72
2023/02/22 07:39:07;;;;;;;9.20;4.20;;;;;;;5.26;100.00;100935.72;5021864;28;20303;-74
2023/02/22 07:41:34;;;;;;;9.53;4.67;;;;;;;5.30;100.00;100936.56;5042494;28;20195;-74
2023/02/22 07:44:00;;;;;;;8.30;4.27;;;;;;;5.32;100.00;100935.69;5034381;28;20238;-73
2023/02/22 07:46:28;;;;;;;14.63;4.40;;;;;;;5.36;100.00;100938.28;5018249;28;20201;-73
2023/02/22 07:48:56;;;;;;;17.17;4.77;;;;;;;5.37;100.00;100933.13;5044057;28;20251;-72
2023/02/22 07:51:23;;;;;;;17.33;6.50;;;;;;;5.41;100.00;100946.91;5046352;28;20192;-73
2023/02/22 07:53:49;;;;;;;26.93;10.63;;;;;;;5.45;100.00;100938.28;5038817;28;20518;-73
2023/02/22 07:56:17;;;;;;;31.37;15.23;;;;;;;5.50;100.00;100937.44;5036489;28;20226;-73
2023/02/22 07:58:43;;;;;;;23.83;10.27;;;;;;;5.49;100.00;100932.28;5037051;28;20196;-73
2023/02/22 08:01:09;;;;;;;24.10;12.67;;;;;;;5.51;100.00;100938.31;5039762;28;20550;-73
2023/02/22 08:03:36;;;;;;;22.80;9.10;;;;;;;5.55;100.00;100937.44;5034298;28;20192;-73
2023/02/22 08:06:06;;;;;;;24.20;9.10;;;;;;;5.58;100.00;100944.34;5033257;28;20197;-73
2023/02/22 08:08:33;;;;;;;10.57;5.87;;;;;;;5.61;100.00;100932.25;5033303;28;20409;-73
2023/02/22 08:10:59;;;;;;;17.70;5.80;;;;;;;5.63;100.00;100932.25;5013981;28;20194;-73
2023/02/22 08:13:26;;;;;;;12.13;4.70;;;;;;;5.66;100.00;100930.53;5013096;28;20670;-71
2023/02/22 08:15:54;;;;;;;13.97;5.07;;;;;;;5.67;100.00;100926.22;5014244;28;20233;-72
2023/02/22 08:18:22;;;;;;;11.63;4.13;;;;;;;5.68;100.00;100933.97;5035585;28;20691;-73
2023/02/22 08:20:50;;;;;;;12.17;4.00;;;;;;;5.71;100.00;100932.25;5028803;28;20228;-73
2023/02/22 08:23:21;;;;;;;10.33;4.50;;;;;;;5.77;100.00;100927.94;5030482;28;20299;-73
2023/02/22 08:25:47;;;;;;;13.93;4.90;;;;;;;5.81;100.00;100929.63;5027000;28;20195;-73
2023/02/22 08:28:16;;;;;;;9.27;4.50;;;;;;;5.83;100.00;100930.50;5030922;28;20204;-73
2023/02/22 08:30:43;;;;;;;17.10;4.13;;;;;;;5.84;100.00;100928.75;5030189;28;20214;-71
2023/02/22 08:33:13;;;;;;;13.57;4.17;;;;;;;5.90;100.00;100923.59;5034541;28;20232;-72
2023/02/22 08:35:39;;;;;;;11.10;4.03;;;;;;;5.89;100.00;100937.38;5028424;28;20253;-73
2023/02/22 08:38:07;;;;;;;11.20;3.43;;;;;;;5.93;100.00;100935.66;5026578;28;20196;-74
2023/02/22 08:40:37;;;;;;;8.77;3.93;;;;;;;5.96;100.00;100936.56;5030534;28;20216;-73
2023/02/22 08:43:05;;;;;;;11.77;3.90;;;;;;;6.04;100.00;100937.38;5017997;28;20198;-73
2023/02/22 08:45:31;;;;;;;8.47;3.57;;;;;;;6.07;100.00;100939.97;5039806;28;20228;-73
2023/02/22 08:47:58;;;;;;;10.50;3.37;;;;;;;6.09;100.00;100945.16;5022354;28;20230;-73
2023/02/22 08:50:28;;;;;;;8.90;3.60;;;;;;;6.14;100.00;100943.41;5014671;28;20230;-73
2023/02/22 08:52:57;;;;;;;10.60;3.47;;;;;;;6.21;100.00;100942.53;5015490;28;20214;-73
2023/02/22 08:55:28;;;;;;;14.03;3.97;;;;;;;6.25;100.00;100939.06;5016083;28;20264;-73
2023/02/22 08:57:56;;;;;;;14.83;3.93;;;;;;;6.26;100.00;100942.50;5011431;28;20210;-73
2023/02/22 09:00:24;;;;;;;16.00;4.00;;;;;;;6.29;100.00;100946.81;5037931;28;20229;-71
2023/02/22 09:02:50;;;;;;;26.70;13.23;;;;;;;6.32;100.00;100947.66;5031081;28;20209;-73
2023/02/22 09:05:17;;;;;;;20.07;9.60;;;;;;;6.40;100.00;100951.09;5023608;28;20264;-73
2023/02/22 09:07:44;;;;;;;11.13;6.03;;;;;;;6.49;100.00;100946.72;5010549;28;20203;-73
2023/02/22 09:10:14;;;;;;;8.27;3.60;;;;;;;6.51;100.00;100940.69;5007524;28;20324;-71
2023/02/22 09:12:40;;;;;;;14.30;3.77;;;;;;;6.58;100.00;100944.13;5032734;28;20288;-73
2023/02/22 09:15:09;;;;;;;9.90;3.40;;;;;;;6.66;100.00;100944.06;5010878;28;20207;-73
2023/02/22 09:17:36;;;;;;;7.97;3.50;;;;;;;6.70;100.00;100945.78;5028018;28;20550;-73
2023/02/22 09:20:02;;;;;;;7.00;3.27;;;;;;;6.76;100.00;100937.97;5029192;28;20262;-72
2023/02/22 09:22:29;;;;;;;9.30;3.40;;;;;;;6.72;100.00;100956.97;5030228;28;20202;-73
2023/02/22 09:24:55;;;;;;;14.23;2.87;;;;;;;6.76;100.00;100946.59;5029722;28;20620;-73
2023/02/22 09:27:21;;;;;;;11.07;3.57;;;;;;;6.86;100.00;100949.13;5028214;28;20530;-73
2023/02/22 09:29:49;;;;;;;11.30;3.17;;;;;;;6.91;100.00;100945.69;5027173;28;20226;-70
2023/02/22 09:32:17;;;;;;;11.43;3.07;;;;;;;6.92;100.00;100949.97;5026866;28;20199;-72
2023/02/22 09:34:44;;;;;;;11.57;3.77;;;;;;;6.92;100.00;100951.72;5023628;28;20210;-72
2023/02/22 09:37:11;;;;;;;7.83;3.63;;;;;;;7.00;100.00;100955.09;5020602;28;20245;-73
2023/02/22 09:39:38;;;;;;;6.93;2.53;;;;;;;6.99;100.00;100959.44;5008732;28;20321;-72
2023/02/22 09:42:12;;;;;;;8.77;2.67;;;;;;;7.04;100.00;100950.78;5036627;28;20209;-73
2023/02/22 09:44:43;;;;;;;8.03;3.13;;;;;;;7.05;100.00;100949.91;5014296;28;20202;-73
2023/02/22 09:47:16;;;;;;;8.70;3.00;;;;;;;7.11;100.00;100942.94;5024004;28;20213;-73
2023/02/22 09:49:56;;;;;;;7.60;2.97;;;;;;;7.13;100.00;100951.56;5012880;28;20312;-73
2023/02/22 09:52:28;;;;;;;10.03;3.00;;;;;;;7.14;100.00;100948.13;5030583;28;20225;-73
2023/02/22 09:55:06;;;;;;;8.13;2.43;;;;;;;7.22;100.00;100950.66;5035313;28;20196;-73
2023/02/22 09:57:39;;;;;;;7.23;2.80;;;;;;;7.21;100.00;100941.13;5024969;28;20223;-73
2023/02/22 10:00:13;;;;;;;11.23;2.73;;;;;;;7.24;100.00;100946.31;5015478;28;20255;-73
2023/02/22 10:02:49;;;;;;;9.10;2.47;;;;;;;7.24;100.00;100950.63;5029155;28;20187;-73
2023/02/22 10:05:24;;;;;;;14.23;2.60;;;;;;;7.22;100.00;100944.59;5025422;28;20248;-73
2023/02/22 10:07:54;;;;;;;11.67;3.33;;;;;;;7.25;100.00;100944.59;5003802;28;20238;-72
2023/02/22 10:10:24;;;;;;;5.97;2.17;;;;;;;7.22;100.00;100949.78;5034833;28;20270;-73
2023/02/22 10:12:59;;;;;;;12.50;3.70;;;;;;;7.25;100.00;100945.44;5013056;28;20254;-73
2023/02/22 10:15:36;;;;;;;12.20;2.57;;;;;;;7.26;100.00;100943.72;5010690;28;20214;-73
2023/02/22 10:18:23;;;;;;;10.00;2.33;;;;;;;7.30;100.00;100945.38;5016865;28;20239;-73
2023/02/22 10:21:01;;;;;;;11.27;3.30;;;;;;;7.34;100.00;100947.97;5011627;28;20223;-73
2023/02/22 10:23:33;;;;;;;7.40;2.57;;;;;;;7.38;100.00;100948.81;5010705;28;20204;-73
2023/02/22 10:26:13;;;;;;;6.67;2.77;;;;;;;7.40;100.00;100949.66;5003829;28;20236;-72
2023/02/22 10:28:43;;;;;;;9.50;3.10;;;;;;;7.44;100.00;100950.47;5005326;28;20220;-73
2023/02/22 10:31:21;;;;;;;11.73;2.63;;;;;;;7.48;100.00;100950.44;5024176;28;20203;-73
2023/02/22 10:33:55;;;;;;;9.93;2.70;;;;;;;7.58;100.00;100946.03;5018448;28;20529;-73
2023/02/22 10:36:24;;;;;;;9.73;2.63;;;;;;;7.55;100.00;100948.69;5017917;28;20213;-73
2023/02/22 10:38:55;;;;;;;9.63;2.57;;;;;;;7.55;100.00;100946.94;5011689;28;20192;-73
2023/02/22 10:41:28;;;;;;;9.50;2.50;;;;;;;7.56;100.00;100948.66;5033831;28;20701;-71
2023/02/22 10:43:54;;;;;;;11.03;2.87;;;;;;;7.55;100.00;100949.53;5010393;28;20206;-73
2023/02/22 10:46:22;;;;;;;7.03;2.27;;;;;;;7.60;100.00;100936.53;5012836;28;20290;-71
2023/02/22 10:48:51;;;;;;;7.93;2.03;;;;;;;7.68;100.00;100937.28;5034354;28;20668;-72
2023/02/22 10:51:17;;;;;;;10.20;2.03;;;;;;;7.78;100.00;100938.09;5028572;28;20196;-72
2023/02/22 10:53:56;;;;;;;7.00;2.40;;;;;;;7.85;100.00;100934.53;5031567;28;20192;-73
2023/02/22 10:56:24;;;;;;;11.40;2.50;;;;;;;7.95;100.00;100930.13;5032967;28;20211;-73
2023/02/22 10:58:54;;;;;;;7.03;2.03;;;;;;;7.95;100.00;100933.59;5014061;28;20200;-73
2023/02/22 11:01:25;;;;;;;9.07;2.30;;;;;;;7.97;100.00;100928.38;5007496;28;20579;-72
2023/02/22 11:04:08;;;;;;;5.33;1.93;;;;;;;7.97;100.00;100929.22;5022032;28;20303;-72
2023/02/22 11:06:35;;;;;;;7.03;1.93;;;;;;;8.05;100.00;100931.72;5025453;28;20964;-71
2023/02/22 11:09:13;;;;;;;7.70;2.07;;;;;;;8.02;100.00;100930.91;5027855;28;20310;-73
2023/02/22 11:11:42;;;;;;;12.10;2.77;;;;;;;8.07;100.00;100926.53;5025038;28;20192;-73
2023/02/22 11:14:10;;;;;;;6.33;1.93;;;;;;;8.08;100.00;100931.72;5023513;28;20564;-72
2023/02/22 11:16:40;;;;;;;9.17;2.60;;;;;;;8.17;100.00;100935.09;5009554;28;20734;-72
2023/02/22 11:19:21;;;;;;;8.77;2.33;;;;;;;8.22;100.00;100933.31;5026583;28;20744;-72
2023/02/22 11:21:51;;;;;;;5.87;1.73;;;;;;;8.27;100.00;100932.38;5024237;28;20209;-73
2023/02/22 11:24:22;;;;;;;4.10;1.90;;;;;;;8.32;100.00;100919.34;5008526;28;20693;-73
2023/02/22 11:26:51;;;;;;;5.43;2.13;;;;;;;8.32;100.00;100927.13;5011534;28;20194;-72
2023/02/22 11:29:21;;;;;;;8.47;2.50;;;;;;;8.26;100.00;100929.78;5019944;28;20224;-73
2023/02/22 11:31:49;;;;;;;7.30;1.80;;;;;;;8.29;100.00;100924.56;5024077;28;20206;-73
2023/02/22 11:34:29;;;;;;;8.37;2.43;;;;;;;8.34;100.00;100926.22;5021193;28;20215;-73